createdAt,value
2022-11-24T00:02:46.696Z,6.50
2022-11-24T00:07:50.222Z,6.50
2022-11-24T00:12:53.217Z,6.50
2022-11-24T00:17:56.427Z,6.50
2022-11-24T00:22:59.413Z,6.50
2022-11-24T00:28:02.307Z,6.50
2022-11-24T00:33:06.413Z,6.50
2022-11-24T00:38:09.249Z,6.50
2022-11-24T00:43:12.553Z,6.50
2022-11-24T00:48:15.570Z,6.50
2022-11-24T00:53:18.473Z,6.40
2022-11-24T00:58:23.233Z,6.30
2022-11-24T01:03:26.126Z,6.40
2022-11-24T01:08:28.943Z,6.40
2022-11-24T01:13:31.787Z,6.40
2022-11-24T01:18:34.665Z,6.40
2022-11-24T01:23:38.056Z,6.40
2022-11-24T01:28:46.637Z,6.40
2022-11-24T01:33:50.547Z,6.50
2022-11-24T01:38:53.432Z,6.40
2022-11-24T01:43:57.422Z,6.40
2022-11-24T01:49:09.211Z,6.40
2022-11-24T01:54:35.443Z,6.40
2022-11-24T01:59:38.743Z,6.40
2022-11-24T02:04:42.752Z,6.40
2022-11-24T02:09:52.913Z,6.30
2022-11-24T02:14:56.888Z,6.30
2022-11-24T02:20:04.433Z,6.30
2022-11-24T02:25:58.580Z,6.20
2022-11-24T02:31:02.454Z,6.20
2022-11-24T02:36:05.710Z,6.20
2022-11-24T02:41:15.130Z,6.30
2022-11-24T02:46:18.038Z,6.20
2022-11-24T02:51:21.123Z,6.20
2022-11-24T02:56:25.607Z,6.20
2022-11-24T03:01:28.521Z,6.20
2022-11-24T03:06:31.500Z,6.10
2022-11-24T03:11:34.345Z,6.10
2022-11-24T03:16:37.294Z,6.00
2022-11-24T03:21:40.243Z,5.90
2022-11-24T03:26:43.187Z,5.80
2022-11-24T03:31:46.245Z,5.80
2022-11-24T03:36:49.067Z,5.80
2022-11-24T03:41:51.932Z,5.80
2022-11-24T03:46:54.952Z,5.70
2022-11-24T03:51:57.870Z,5.70
2022-11-24T03:57:00.872Z,5.70
2022-11-24T04:02:03.797Z,5.60
2022-11-24T04:07:06.732Z,5.50
2022-11-24T04:12:29.162Z,5.50
2022-11-24T04:17:32.097Z,5.40
2022-11-24T04:22:35.869Z,5.40
2022-11-24T04:27:39.359Z,5.40
2022-11-24T04:32:42.383Z,5.30
2022-11-24T04:37:45.180Z,5.30
2022-11-24T04:42:55.666Z,5.20
2022-11-24T04:47:58.604Z,5.20
2022-11-24T04:53:01.528Z,5.20
2022-11-24T04:58:04.477Z,5.10
2022-11-24T05:03:07.367Z,5.10
2022-11-24T05:08:10.234Z,5.00
2022-11-24T05:13:13.965Z,5.00
2022-11-24T05:18:16.874Z,4.90
2022-11-24T05:23:19.822Z,4.90
2022-11-24T05:28:22.727Z,4.90
2022-11-24T05:33:28.630Z,4.90
2022-11-24T05:38:33.092Z,4.90
2022-11-24T05:43:35.989Z,5.00
2022-11-24T05:48:39.152Z,5.00
2022-11-24T05:53:42.046Z,5.10
2022-11-24T05:58:45.087Z,5.20
2022-11-24T06:03:48.267Z,5.20
2022-11-24T06:08:51.165Z,5.20
2022-11-24T06:13:54.616Z,5.20
2022-11-24T06:18:57.991Z,5.20
2022-11-24T06:24:00.753Z,5.20
2022-11-24T06:29:03.978Z,5.30
2022-11-24T06:34:11.060Z,5.30
2022-11-24T06:39:13.987Z,5.40
2022-11-24T06:44:17.011Z,5.40
2022-11-24T06:49:20.150Z,5.50
2022-11-24T06:54:23.352Z,5.60
2022-11-24T06:59:27.745Z,5.60
2022-11-24T07:04:30.820Z,5.70
2022-11-24T07:09:33.698Z,5.80
2022-11-24T07:14:36.797Z,5.80
2022-11-24T07:19:40.055Z,5.80
2022-11-24T07:24:42.868Z,5.70
2022-11-24T07:29:45.775Z,5.70
2022-11-24T07:34:48.678Z,5.70
2022-11-24T07:39:51.544Z,5.80
2022-11-24T07:44:54.368Z,5.90
2022-11-24T07:49:57.499Z,6.00
2022-11-24T07:55:00.439Z,6.00
2022-11-24T08:00:05.927Z,6.10
2022-11-24T08:05:09.314Z,6.10
2022-11-24T08:10:12.309Z,6.10
2022-11-24T08:15:15.866Z,6.10
2022-11-24T08:20:19.007Z,6.10
2022-11-24T08:25:24.456Z,6.10
2022-11-24T08:30:27.911Z,6.10
2022-11-24T08:35:30.795Z,6.20
2022-11-24T08:40:33.930Z,6.30
2022-11-24T08:45:41.359Z,6.40
2022-11-24T08:50:44.881Z,6.40
2022-11-24T08:55:47.821Z,6.40
2022-11-24T09:00:50.638Z,6.50
2022-11-24T09:05:53.581Z,6.50
2022-11-24T09:11:05.761Z,6.60
2022-11-24T09:16:17.937Z,6.60
2022-11-24T09:21:21.905Z,6.70
2022-11-24T09:26:31.113Z,6.70
2022-11-24T09:31:37.193Z,6.80
2022-11-24T09:36:40.045Z,7.00
2022-11-24T09:42:06.034Z,7.10
2022-11-24T09:47:30.622Z,7.20
2022-11-24T09:52:43.245Z,7.30
2022-11-24T09:57:56.077Z,7.50
2022-11-24T10:02:59.003Z,7.50
2022-11-24T10:08:36.105Z,7.50
2022-11-24T10:14:03.068Z,7.50
2022-11-24T10:19:36.315Z,7.40
2022-11-24T10:25:07.692Z,7.40
2022-11-24T10:30:23.914Z,7.40
2022-11-24T10:35:37.649Z,7.40
2022-11-24T10:40:56.859Z,7.40
2022-11-24T10:46:09.120Z,7.50
2022-11-24T10:51:30.429Z,7.50
2022-11-24T10:56:44.911Z,7.50
2022-11-24T11:01:47.996Z,7.50
2022-11-24T11:06:51.428Z,7.60
2022-11-24T11:11:54.394Z,7.60
2022-11-24T11:16:58.136Z,7.60
2022-11-24T11:22:48.324Z,7.70
2022-11-24T11:27:51.592Z,7.70
2022-11-24T11:38:21.385Z,7.90
2022-11-24T11:43:34.467Z,7.90
2022-11-24T11:48:43.581Z,8.00
2022-11-24T11:54:16.477Z,8.00
2022-11-24T11:59:50.104Z,8.10
2022-11-24T12:05:34.182Z,8.20
2022-11-24T12:10:56.191Z,8.30
2022-11-24T12:16:14.677Z,8.40
2022-11-24T12:21:26.637Z,8.40
2022-11-24T12:26:49.331Z,8.40
2022-11-24T12:32:21.231Z,8.30
2022-11-24T12:37:47.326Z,8.30
2022-11-24T12:43:13.563Z,8.20
2022-11-24T12:48:43.071Z,8.10
2022-11-24T12:53:52.951Z,8.10
2022-11-24T12:59:13.480Z,8.20
2022-11-24T13:04:38.138Z,8.30
2022-11-24T13:10:53.524Z,8.30
2022-11-24T13:16:34.434Z,8.20
2022-11-24T13:21:32.837Z,8.10
2022-11-24T13:26:41.557Z,8.00
2022-11-24T13:31:44.769Z,8.00
2022-11-24T13:36:54.127Z,8.00
2022-11-24T13:41:57.239Z,8.00
2022-11-24T13:47:25.056Z,8.00
2022-11-24T13:52:39.847Z,8.00
2022-11-24T13:57:58.427Z,8.00
2022-11-24T14:03:22.037Z,8.00
2022-11-24T14:08:30.460Z,8.00
2022-11-24T14:13:33.626Z,8.00
2022-11-24T14:18:40.059Z,8.00
2022-11-24T14:24:33.472Z,8.00
2022-11-24T14:30:03.351Z,7.90
2022-11-24T14:35:29.210Z,7.80
2022-11-24T14:40:55.570Z,7.80
2022-11-24T14:46:09.380Z,7.70
2022-11-24T14:51:32.306Z,7.70
2022-11-24T14:56:38.198Z,7.60
2022-11-24T15:01:41.083Z,7.60
2022-11-24T15:07:26.403Z,7.60
2022-11-24T15:12:41.005Z,7.50
2022-11-24T15:17:59.276Z,7.50
2022-11-24T15:23:23.993Z,7.50
2022-11-24T15:28:27.427Z,7.50
2022-11-24T15:33:30.960Z,7.50
2022-11-24T15:38:33.972Z,7.40
2022-11-24T15:43:41.136Z,7.40
2022-11-24T15:48:43.984Z,7.30
2022-11-24T15:53:58.722Z,7.20
2022-11-24T15:59:04.711Z,7.10
2022-11-24T16:04:07.813Z,7.00
2022-11-24T16:09:16.281Z,6.90
2022-11-24T16:14:19.356Z,6.90
2022-11-24T16:19:22.391Z,6.90
2022-11-24T16:24:25.912Z,6.80
2022-11-24T16:29:28.770Z,6.80
2022-11-24T16:34:31.733Z,6.70
2022-11-24T16:39:37.282Z,6.70
2022-11-24T16:44:40.352Z,6.60
2022-11-24T16:49:43.420Z,6.50
2022-11-24T16:54:47.732Z,6.40
2022-11-24T16:59:50.632Z,6.30
2022-11-24T17:04:53.571Z,6.30
2022-11-24T17:09:56.806Z,6.30
2022-11-24T17:15:30.452Z,6.20
2022-11-24T17:20:22.816Z,6.20
2022-11-24T17:25:25.754Z,6.20
2022-11-24T17:30:28.600Z,6.10
2022-11-24T17:35:34.370Z,6.10
2022-11-24T17:40:37.205Z,6.00
2022-11-24T17:45:40.161Z,6.00
2022-11-24T17:50:43.460Z,6.00
2022-11-24T17:55:48.208Z,6.00
2022-11-24T18:00:52.171Z,6.00
2022-11-24T18:05:55.972Z,5.90
2022-11-24T18:11:27.332Z,6.00
2022-11-24T18:16:35.011Z,6.00
2022-11-24T18:21:44.809Z,5.90
2022-11-24T18:26:48.222Z,5.90
2022-11-24T18:31:51.203Z,5.80
2022-11-24T18:36:54.316Z,5.80
2022-11-24T18:41:56.961Z,5.70
2022-11-24T18:46:59.811Z,5.60
2022-11-24T18:52:02.696Z,5.50
2022-11-24T18:57:05.808Z,5.50
2022-11-24T19:02:10.860Z,5.50
2022-11-24T19:07:17.072Z,5.50
2022-11-24T19:12:20.023Z,5.50
2022-11-24T19:17:22.974Z,5.50
2022-11-24T19:22:25.811Z,5.50
2022-11-24T19:27:29.738Z,5.50
2022-11-24T19:32:32.773Z,5.60
2022-11-24T19:37:35.640Z,5.60
2022-11-24T19:42:38.598Z,5.60
2022-11-24T19:47:41.828Z,5.50
2022-11-24T19:52:44.767Z,5.40
2022-11-24T19:57:47.703Z,5.30
2022-11-24T20:02:51.113Z,5.20
2022-11-24T20:07:54.800Z,5.20
2022-11-24T20:12:57.768Z,5.10
2022-11-24T20:18:00.655Z,5.20
2022-11-24T20:23:03.832Z,5.20
2022-11-24T20:28:07.148Z,5.20
2022-11-24T20:33:10.084Z,5.20
2022-11-24T20:38:12.974Z,5.30
2022-11-24T20:43:15.945Z,5.30
2022-11-24T20:48:18.825Z,5.40
2022-11-24T20:53:21.743Z,5.50
2022-11-24T20:58:24.672Z,5.60
2022-11-24T21:03:27.587Z,5.60
2022-11-24T21:08:36.038Z,5.50
2022-11-24T21:13:43.750Z,5.60
2022-11-24T21:18:52.413Z,5.60
2022-11-24T21:23:55.256Z,5.60
2022-11-24T21:28:58.362Z,5.70
2022-11-24T21:34:01.022Z,5.60
2022-11-24T21:39:04.529Z,5.60
2022-11-24T21:44:07.761Z,5.60
2022-11-24T21:49:10.746Z,5.50
2022-11-24T21:54:13.663Z,5.50
2022-11-24T21:59:16.473Z,5.50
2022-11-24T22:04:19.372Z,5.40
2022-11-24T22:09:22.254Z,5.40
2022-11-24T22:14:25.163Z,5.50
2022-11-24T22:19:27.964Z,5.60
2022-11-24T22:24:30.819Z,5.70
2022-11-24T22:29:34.238Z,5.80
2022-11-24T22:34:37.280Z,5.70
2022-11-24T22:39:40.355Z,5.70
2022-11-24T22:44:43.259Z,5.60
2022-11-24T22:49:46.080Z,5.60
2022-11-24T22:54:49.015Z,5.50
2022-11-24T22:59:51.809Z,5.50
2022-11-24T23:04:54.798Z,5.50
2022-11-24T23:09:57.462Z,5.50
2022-11-24T23:15:00.229Z,5.50
2022-11-24T23:20:03.329Z,5.40
2022-11-24T23:25:06.763Z,5.40
2022-11-24T23:30:09.818Z,5.40
2022-11-24T23:35:14.158Z,5.40
2022-11-24T23:40:17.375Z,5.40
2022-11-24T23:45:20.246Z,5.40
2022-11-24T23:50:23.090Z,5.50
2022-11-24T23:55:26.001Z,5.40
